Time;durP1;ratioP1;P1;durP2;ratioP2;P2;SDS_P1;SDS_P2;PMS_P1;PMS_P2;Temp;Humidity;BMP_temperature;BMP_pressure;BME280_temperature;BME280_humidity;BME280_pressure;Samples;Min_cycle;Max_cycle;Signal;HPM_P1;HPM_P2
2023/04/14 00:00:12;;;;;;;6.07;5.00;;;3.70;99.90;;;;;;5000088;28;20235;-80
2023/04/14 00:02:39;;;;;;;6.20;5.60;;;3.60;99.90;;;;;;4998340;28;20239;-81
2023/04/14 00:05:08;;;;;;;7.13;5.63;;;3.60;99.90;;;;;;4996082;28;20242;-78
2023/04/14 00:07:34;;;;;;;10.47;7.07;;;3.50;99.90;;;;;;5000123;28;20228;-79
2023/04/14 00:10:01;;;;;;;7.40;5.97;;;3.50;99.90;;;;;;5000191;28;20318;-79
2023/04/14 00:12:29;;;;;;;7.00;5.57;;;3.50;99.90;;;;;;5000025;28;20250;-79
2023/04/14 00:14:56;;;;;;;8.80;6.17;;;3.50;99.90;;;;;;4999537;28;20224;-79
2023/04/14 00:17:22;;;;;;;6.73;5.60;;;3.50;99.90;;;;;;4999499;28;20239;-78
2023/04/14 00:19:49;;;;;;;7.77;6.10;;;3.40;99.90;;;;;;4994723;28;20227;-79
2023/04/14 00:22:17;;;;;;;8.00;6.03;;;3.40;99.90;;;;;;5004090;28;22136;-80
2023/04/14 00:24:43;;;;;;;8.27;5.90;;;3.40;99.90;;;;;;5000882;28;20227;-80
2023/04/14 00:27:11;;;;;;;7.20;6.43;;;3.40;99.90;;;;;;4997985;28;20231;-79
2023/04/14 00:29:39;;;;;;;7.03;6.30;;;3.40;99.90;;;;;;5000752;28;20233;-78
2023/04/14 00:32:06;;;;;;;10.40;6.93;;;3.40;99.90;;;;;;5004146;28;20234;-78
2023/04/14 00:34:34;;;;;;;8.00;6.30;;;3.40;99.90;;;;;;5000400;28;20226;-79
2023/04/14 00:37:00;;;;;;;9.20;6.47;;;3.40;99.90;;;;;;4998752;28;20250;-79
2023/04/14 00:39:30;;;;;;;7.27;5.83;;;3.40;99.90;;;;;;5003105;28;20773;-78
2023/04/14 00:41:57;;;;;;;8.37;6.03;;;3.40;99.90;;;;;;5005399;28;20227;-80
2023/04/14 00:44:24;;;;;;;9.90;6.30;;;3.30;99.90;;;;;;4998907;28;20896;-78
2023/04/14 00:46:52;;;;;;;7.60;6.47;;;3.30;99.90;;;;;;5019330;28;20225;-82
2023/04/14 00:49:19;;;;;;;7.50;6.33;;;3.30;99.90;;;;;;5001840;28;20268;-80
2023/04/14 00:51:47;;;;;;;7.60;6.30;;;3.30;99.90;;;;;;5004598;28;20227;-78
2023/04/14 00:54:17;;;;;;;7.63;5.73;;;3.20;99.90;;;;;;5002438;28;20225;-78
2023/04/14 00:56:45;;;;;;;5.57;4.87;;;3.20;99.90;;;;;;5001980;28;20229;-78
2023/04/14 00:59:13;;;;;;;5.03;4.40;;;3.20;99.90;;;;;;5001051;28;20231;-79
2023/04/14 01:01:41;;;;;;;5.40;4.60;;;3.10;99.90;;;;;;5014089;28;20322;-79
2023/04/14 01:04:09;;;;;;;5.40;4.70;;;3.10;99.90;;;;;;5001163;28;20225;-79
2023/04/14 01:06:36;;;;;;;6.53;4.87;;;3.10;99.90;;;;;;5000564;28;20231;-76
2023/04/14 01:09:03;;;;;;;8.13;6.03;;;3.00;99.90;;;;;;5001944;28;20240;-76
2023/04/14 01:11:37;;;;;;;9.13;6.10;;;2.90;99.90;;;;;;5000107;28;20224;-75
2023/04/14 01:14:12;;;;;;;7.93;6.27;;;2.90;99.90;;;;;;5001293;28;20312;-75
2023/04/14 01:16:41;;;;;;;5.83;5.23;;;2.90;99.90;;;;;;4999094;28;20850;-76
2023/04/14 01:19:32;;;;;;;7.57;5.43;;;2.80;99.90;;;;;;4996962;28;20223;-76
2023/04/14 01:22:04;;;;;;;7.60;5.80;;;2.80;99.90;;;;;;5000608;28;20295;-75
2023/04/14 01:24:40;;;;;;;8.63;6.13;;;2.70;99.90;;;;;;4996222;28;20232;-75
2023/04/14 01:27:24;;;;;;;9.07;6.47;;;2.70;99.90;;;;;;5002016;28;20609;-76
2023/04/14 01:30:09;;;;;;;7.97;5.70;;;2.70;99.90;;;;;;4997896;28;20235;-77
2023/04/14 01:32:42;;;;;;;8.50;5.80;;;2.60;99.90;;;;;;5001897;28;20271;-75
2023/04/14 01:35:13;;;;;;;7.83;6.23;;;2.60;99.90;;;;;;5000612;28;20237;-75
2023/04/14 01:37:46;;;;;;;7.20;6.17;;;2.60;99.90;;;;;;5002530;28;20229;-76
2023/04/14 01:40:17;;;;;;;8.07;6.67;;;2.60;99.90;;;;;;4997077;28;20275;-75
2023/04/14 01:42:48;;;;;;;9.33;6.57;;;2.50;99.90;;;;;;4996176;28;20251;-75
2023/04/14 01:45:18;;;;;;;8.80;7.10;;;2.50;99.90;;;;;;4999642;28;20733;-74
2023/04/14 01:47:48;;;;;;;8.47;6.60;;;2.50;99.90;;;;;;4998879;28;20239;-75
2023/04/14 01:50:16;;;;;;;8.57;6.60;;;2.40;99.90;;;;;;4996882;28;20227;-74
2023/04/14 01:52:46;;;;;;;8.13;6.97;;;2.40;99.90;;;;;;5000530;28;20287;-76
2023/04/14 01:55:17;;;;;;;8.47;6.57;;;2.40;99.90;;;;;;4998932;28;20282;-76
2023/04/14 01:57:48;;;;;;;7.43;6.33;;;2.40;99.90;;;;;;5000090;28;20308;-76
2023/04/14 02:00:18;;;;;;;8.53;6.43;;;2.40;99.90;;;;;;5000499;28;20710;-75
2023/04/14 02:02:47;;;;;;;8.13;6.67;;;2.30;99.90;;;;;;4996150;28;20221;-75
2023/04/14 02:05:18;;;;;;;6.93;6.20;;;2.30;99.90;;;;;;4993536;28;20228;-75
2023/04/14 02:07:45;;;;;;;9.73;6.10;;;2.30;99.90;;;;;;5000161;28;20224;-74
2023/04/14 02:10:16;;;;;;;10.13;6.70;;;2.20;99.90;;;;;;5010290;28;20214;-75
2023/04/14 02:12:44;;;;;;;8.77;6.50;;;2.20;99.90;;;;;;4997909;28;20894;-76
2023/04/14 02:15:14;;;;;;;8.70;6.93;;;2.20;99.90;;;;;;4999172;28;20225;-75
2023/04/14 02:17:44;;;;;;;8.57;6.27;;;2.10;99.90;;;;;;5018752;28;20216;-76
2023/04/14 02:20:14;;;;;;;8.63;6.90;;;2.10;99.90;;;;;;4998228;28;20631;-74
2023/04/14 02:22:41;;;;;;;7.87;5.93;;;2.10;99.90;;;;;;4998905;28;20681;-75
2023/04/14 02:25:08;;;;;;;7.63;6.00;;;2.10;99.90;;;;;;5000651;28;20234;-76
2023/04/14 02:27:38;;;;;;;7.57;5.67;;;2.10;99.90;;;;;;5016976;28;21003;-76
2023/04/14 02:30:10;;;;;;;7.30;5.43;;;2.00;99.90;;;;;;4995082;28;21174;-76
2023/04/14 02:32:39;;;;;;;7.53;5.33;;;2.00;99.90;;;;;;4995874;28;20244;-76
2023/04/14 02:35:12;;;;;;;5.30;4.80;;;2.00;99.90;;;;;;4998763;28;20256;-77
2023/04/14 02:37:44;;;;;;;5.80;5.00;;;1.90;99.90;;;;;;5016303;28;20259;-76
2023/04/14 02:40:17;;;;;;;5.33;4.53;;;1.90;99.90;;;;;;4991239;28;20257;-76
2023/04/14 02:42:47;;;;;;;8.33;6.30;;;1.90;99.90;;;;;;5001266;28;20218;-77
2023/04/14 02:45:20;;;;;;;6.70;5.60;;;1.80;99.90;;;;;;5017252;28;20217;-74
2023/04/14 02:47:54;;;;;;;9.67;6.93;;;1.80;99.90;;;;;;4997556;28;20229;-76
2023/04/14 02:50:22;;;;;;;7.33;6.47;;;1.70;99.90;;;;;;5011008;28;20281;-76
2023/04/14 02:53:03;;;;;;;6.77;5.60;;;1.70;99.90;;;;;;4998177;28;20235;-75
2023/04/14 02:55:35;;;;;;;8.03;6.20;;;1.70;99.90;;;;;;4997891;28;20251;-76
2023/04/14 02:58:03;;;;;;;8.53;7.00;;;1.70;99.90;;;;;;5015306;28;20229;-75
2023/04/14 03:00:33;;;;;;;11.57;6.43;;;1.70;99.90;;;;;;4999827;28;20607;-76
2023/04/14 03:03:01;;;;;;;8.50;6.60;;;1.70;99.90;;;;;;4998619;28;20217;-76
2023/04/14 03:05:28;;;;;;;8.63;6.27;;;1.70;99.90;;;;;;4995625;28;20323;-77
2023/04/14 03:08:05;;;;;;;9.17;6.33;;;1.70;99.90;;;;;;5013781;28;20251;-76
2023/04/14 03:10:32;;;;;;;9.67;6.50;;;1.70;99.90;;;;;;4992070;28;20218;-76
2023/04/14 03:13:03;;;;;;;8.27;6.27;;;1.70;99.90;;;;;;4986821;28;20663;-77
2023/04/14 03:15:32;;;;;;;9.13;6.87;;;1.70;99.90;;;;;;5017010;28;20223;-76
2023/04/14 03:18:01;;;;;;;9.27;7.07;;;1.70;99.90;;;;;;5001647;28;20231;-76
2023/04/14 03:20:31;;;;;;;9.67;7.00;;;1.70;99.90;;;;;;5010704;28;20230;-77
2023/04/14 03:23:03;;;;;;;9.30;6.70;;;1.70;99.90;;;;;;4996010;28;20274;-76
2023/04/14 03:25:36;;;;;;;8.53;6.80;;;1.70;99.90;;;;;;4999561;28;20248;-76
2023/04/14 03:28:11;;;;;;;7.97;5.30;;;1.70;99.90;;;;;;5017955;28;20304;-77
2023/04/14 03:30:46;;;;;;;5.47;4.73;;;1.70;99.90;;;;;;4999465;28;20231;-75
2023/04/14 03:33:18;;;;;;;6.33;5.10;;;1.70;99.90;;;;;;5017187;28;20304;-77
2023/04/14 03:35:48;;;;;;;7.03;5.17;;;1.70;99.90;;;;;;4999722;28;20230;-77
2023/04/14 03:38:16;;;;;;;7.43;5.70;;;1.60;99.90;;;;;;5015960;28;20216;-76
2023/04/14 03:40:47;;;;;;;6.50;5.67;;;1.60;99.90;;;;;;5014542;28;20277;-77
2023/04/14 03:43:21;;;;;;;8.03;5.83;;;1.50;99.90;;;;;;5001824;28;20243;-77
2023/04/14 03:45:50;;;;;;;8.37;6.20;;;1.50;99.90;;;;;;4998819;28;20227;-77
2023/04/14 03:48:20;;;;;;;8.47;6.23;;;1.50;99.90;;;;;;5001258;28;20224;-75
2023/04/14 03:50:52;;;;;;;8.50;6.47;;;1.50;99.90;;;;;;4997836;28;20225;-77
2023/04/14 03:53:21;;;;;;;9.33;7.33;;;1.50;99.90;;;;;;4993878;28;20662;-77
2023/04/14 03:55:52;;;;;;;10.60;7.10;;;1.50;99.90;;;;;;5018348;28;20308;-76
2023/04/14 03:58:21;;;;;;;8.60;6.50;;;1.50;99.90;;;;;;5000618;28;20215;-76
2023/04/14 04:00:52;;;;;;;7.97;6.30;;;1.50;99.90;;;;;;4997984;28;20217;-75
2023/04/14 04:03:21;;;;;;;6.17;5.07;;;1.40;99.90;;;;;;4997641;28;20734;-77
2023/04/14 04:05:48;;;;;;;7.47;5.93;;;1.40;99.90;;;;;;5000609;28;20219;-76
2023/04/14 04:08:17;;;;;;;8.00;6.13;;;1.40;99.90;;;;;;5000379;28;20221;-77
2023/04/14 04:10:47;;;;;;;8.13;6.07;;;1.40;99.90;;;;;;4997289;28;20230;-77
2023/04/14 04:13:17;;;;;;;44.33;30.83;;;1.40;99.90;;;;;;5013915;28;20220;-76
2023/04/14 04:15:49;;;;;;;13.27;11.13;;;1.40;99.90;;;;;;4998108;28;20229;-77
2023/04/14 04:18:17;;;;;;;10.83;7.90;;;1.40;99.90;;;;;;4994224;28;20224;-76
2023/04/14 04:20:45;;;;;;;11.73;10.20;;;1.40;99.90;;;;;;4990907;28;20604;-76
2023/04/14 04:23:15;;;;;;;9.37;8.10;;;1.40;99.90;;;;;;4996107;28;20225;-75
2023/04/14 04:25:42;;;;;;;8.03;6.50;;;1.40;99.90;;;;;;5001227;28;20218;-75
2023/04/14 04:28:21;;;;;;;10.37;8.30;;;1.40;99.90;;;;;;4999121;28;20252;-76
2023/04/14 04:30:50;;;;;;;25.70;7.93;;;1.30;99.90;;;;;;4996913;28;20248;-76
2023/04/14 04:33:17;;;;;;;7.83;5.87;;;1.30;99.90;;;;;;5000974;28;20897;-78
2023/04/14 04:35:45;;;;;;;8.07;5.33;;;1.30;99.90;;;;;;5012415;28;20222;-76
2023/04/14 04:38:13;;;;;;;6.80;5.73;;;1.30;99.90;;;;;;5016647;28;20316;-75
2023/04/14 04:40:43;;;;;;;8.53;6.03;;;1.30;99.90;;;;;;5016718;28;20227;-79
2023/04/14 04:43:24;;;;;;;13.77;12.30;;;1.30;99.90;;;;;;5019831;28;20220;-77
2023/04/14 04:46:12;;;;;;;10.10;6.73;;;1.30;99.90;;;;;;5001956;28;20235;-79
2023/04/14 04:48:39;;;;;;;6.80;5.77;;;1.30;99.90;;;;;;4999222;28;20705;-79
2023/04/14 04:51:06;;;;;;;7.50;6.07;;;1.40;99.90;;;;;;5002382;28;20224;-76
2023/04/14 04:53:33;;;;;;;6.10;5.37;;;1.40;99.90;;;;;;5000730;28;20291;-77
2023/04/14 04:56:01;;;;;;;8.63;6.93;;;1.40;99.90;;;;;;4994990;28;20582;-76
2023/04/14 04:58:29;;;;;;;9.23;7.33;;;1.40;99.90;;;;;;4996305;28;20233;-78
2023/04/14 05:00:56;;;;;;;7.33;5.77;;;1.40;99.90;;;;;;4996874;28;20320;-76
2023/04/14 05:03:23;;;;;;;19.33;11.00;;;1.40;99.90;;;;;;4995425;28;20329;-77
2023/04/14 05:05:50;;;;;;;8.77;6.23;;;1.50;99.90;;;;;;4992723;28;20229;-76
2023/04/14 05:08:17;;;;;;;30.80;22.63;;;1.50;99.90;;;;;;4998620;28;20221;-76
2023/04/14 05:10:44;;;;;;;19.23;15.70;;;1.50;99.90;;;;;;4996420;28;20232;-73
2023/04/14 05:13:11;;;;;;;8.13;5.87;;;1.60;99.90;;;;;;4999728;28;20814;-74
2023/04/14 05:15:39;;;;;;;7.30;5.57;;;1.60;99.90;;;;;;4994457;28;20299;-75
2023/04/14 05:18:05;;;;;;;6.27;5.20;;;1.70;99.90;;;;;;5000835;28;20223;-76
2023/04/14 05:20:32;;;;;;;7.63;5.40;;;1.80;99.90;;;;;;5000876;28;20227;-76
2023/04/14 05:22:59;;;;;;;7.23;5.30;;;1.90;99.90;;;;;;4999234;28;20786;-75
2023/04/14 05:25:26;;;;;;;5.70;4.73;;;2.00;99.90;;;;;;5000094;28;20234;-76
2023/04/14 05:27:53;;;;;;;7.27;5.37;;;2.10;99.90;;;;;;4992808;28;20249;-76
2023/04/14 05:30:20;;;;;;;9.80;5.10;;;2.20;99.90;;;;;;4997293;28;20227;-76
2023/04/14 05:32:48;;;;;;;10.23;5.13;;;2.30;99.90;;;;;;5002080;28;20950;-76
2023/04/14 05:35:15;;;;;;;11.23;5.93;;;2.40;99.90;;;;;;5005006;28;20230;-76
2023/04/14 05:37:42;;;;;;;5.83;4.67;;;2.50;99.90;;;;;;4998943;28;20222;-76
2023/04/14 05:40:10;;;;;;;6.67;5.00;;;2.60;99.90;;;;;;4999996;28;20217;-76
2023/04/14 05:42:39;;;;;;;5.97;4.70;;;2.70;99.90;;;;;;4999896;28;20261;-76
2023/04/14 05:45:08;;;;;;;9.67;4.93;;;2.90;99.90;;;;;;5001478;28;20232;-76
2023/04/14 05:47:35;;;;;;;7.10;4.83;;;3.00;99.90;;;;;;4998016;28;20232;-76
2023/04/14 05:50:05;;;;;;;6.83;4.50;;;3.10;99.90;;;;;;4993407;28;20923;-75
2023/04/14 05:52:31;;;;;;;7.27;4.67;;;3.20;99.90;;;;;;4993612;28;20236;-75
2023/04/14 05:54:58;;;;;;;8.47;5.17;;;3.40;99.90;;;;;;5003111;28;20220;-76
2023/04/14 05:57:25;;;;;;;8.13;5.03;;;3.50;99.90;;;;;;5003658;28;20331;-76
2023/04/14 05:59:51;;;;;;;9.60;6.53;;;3.60;99.90;;;;;;4997757;28;20234;-76
2023/04/14 06:02:18;;;;;;;9.57;6.33;;;3.70;99.90;;;;;;4999107;28;20231;-77
2023/04/14 06:04:45;;;;;;;17.90;14.40;;;3.90;99.90;;;;;;4998573;28;20218;-77
2023/04/14 06:07:13;;;;;;;26.97;20.20;;;4.10;99.90;;;;;;4999871;28;20228;-76
2023/04/14 06:09:41;;;;;;;12.63;8.73;;;4.10;99.90;;;;;;5004506;28;20242;-76
2023/04/14 06:12:08;;;;;;;11.00;6.93;;;4.30;99.90;;;;;;5004777;28;20783;-77
2023/04/14 06:14:34;;;;;;;16.10;11.10;;;4.40;99.90;;;;;;5000553;28;20220;-77
2023/04/14 06:17:01;;;;;;;12.03;7.07;;;4.60;99.90;;;;;;5002526;28;20229;-77
2023/04/14 06:19:28;;;;;;;8.20;5.93;;;4.80;99.90;;;;;;5004762;28;20780;-75
2023/04/14 06:21:54;;;;;;;7.90;5.83;;;5.00;99.90;;;;;;5004961;28;20553;-76
2023/04/14 06:24:22;;;;;;;8.57;5.13;;;5.20;99.90;;;;;;5019474;28;20232;-76
2023/04/14 06:26:49;;;;;;;9.20;5.93;;;5.50;99.90;;;;;;5002524;28;20236;-76
2023/04/14 06:29:16;;;;;;;7.93;4.67;;;5.70;99.90;;;;;;5002893;28;20224;-77
2023/04/14 06:31:42;;;;;;;9.73;6.33;;;6.00;99.90;;;;;;5019048;28;20775;-76
2023/04/14 06:34:09;;;;;;;31.47;21.47;;;6.20;99.90;;;;;;5001758;28;20283;-77
2023/04/14 06:36:36;;;;;;;13.00;9.13;;;6.40;99.90;;;;;;5002741;28;20279;-76
2023/04/14 06:39:03;;;;;;;8.03;4.70;;;6.60;99.90;;;;;;5000478;28;20872;-77
2023/04/14 06:41:31;;;;;;;8.07;4.33;;;6.90;99.90;;;;;;5016741;28;20262;-76
2023/04/14 06:43:58;;;;;;;5.33;3.73;;;7.10;99.90;;;;;;5004977;28;20225;-75
2023/04/14 06:46:25;;;;;;;6.00;3.83;;;7.20;99.90;;;;;;5002181;28;20913;-76
2023/04/14 06:48:51;;;;;;;35.67;23.27;;;7.30;99.90;;;;;;5015787;28;20254;-77
2023/04/14 06:51:18;;;;;;;8.23;5.13;;;7.40;99.90;;;;;;5002599;28;20221;-77
2023/04/14 06:53:45;;;;;;;6.47;4.30;;;7.50;99.90;;;;;;4998925;28;20231;-76
2023/04/14 06:56:11;;;;;;;7.60;3.80;;;7.50;99.90;;;;;;5003211;28;20231;-76
2023/04/14 06:58:39;;;;;;;8.17;4.30;;;7.50;99.90;;;;;;5001831;28;20590;-77
2023/04/14 07:01:06;;;;;;;6.67;4.07;;;7.50;99.90;;;;;;5003546;28;20227;-75
2023/04/14 07:03:33;;;;;;;5.70;4.17;;;7.60;99.90;;;;;;5001255;28;20260;-77
2023/04/14 07:06:03;;;;;;;5.50;3.90;;;7.60;99.90;;;;;;5001280;28;20232;-78
2023/04/14 07:08:31;;;;;;;7.27;3.80;;;7.60;99.90;;;;;;4990748;28;21147;-79
2023/04/14 07:11:00;;;;;;;4.57;3.60;;;7.70;99.90;;;;;;4997431;28;20220;-80
2023/04/14 07:13:26;;;;;;;7.47;3.40;;;7.80;99.90;;;;;;5000559;28;20281;-81
2023/04/14 07:15:54;;;;;;;4.33;3.30;;;7.90;99.90;;;;;;4999396;28;20251;-78
2023/04/14 07:18:21;;;;;;;6.10;3.53;;;8.00;99.90;;;;;;4999803;28;20221;-78
2023/04/14 07:20:50;;;;;;;6.13;3.43;;;8.10;99.90;;;;;;5000483;28;20645;-78
2023/04/14 07:23:17;;;;;;;12.17;4.60;;;8.20;99.90;;;;;;5003131;28;20221;-79
2023/04/14 07:25:44;;;;;;;5.83;3.33;;;8.30;99.90;;;;;;5003736;28;20229;-79
2023/04/14 07:28:12;;;;;;;7.57;3.17;;;8.30;99.90;;;;;;5004169;28;20232;-78
2023/04/14 07:30:38;;;;;;;5.90;2.97;;;8.50;99.90;;;;;;4998806;28;20239;-80
2023/04/14 07:33:06;;;;;;;5.17;3.00;;;8.50;99.90;;;;;;5018946;28;20241;-79
2023/04/14 07:35:33;;;;;;;5.20;3.10;;;8.60;99.90;;;;;;5000680;28;20236;-81
2023/04/14 07:38:00;;;;;;;6.73;2.73;;;8.70;99.90;;;;;;5001297;28;20589;-79
2023/04/14 07:40:26;;;;;;;5.23;2.60;;;8.80;99.90;;;;;;5000297;28;20221;-78
2023/04/14 07:42:53;;;;;;;5.03;2.13;;;8.90;99.90;;;;;;5000885;28;20228;-79
2023/04/14 07:45:20;;;;;;;4.70;2.60;;;9.00;99.90;;;;;;4999834;28;20230;-78
2023/04/14 07:47:46;;;;;;;4.20;2.03;;;9.10;99.90;;;;;;5000769;28;20311;-79
2023/04/14 07:50:14;;;;;;;4.80;2.03;;;9.30;99.90;;;;;;4999346;28;20236;-79
2023/04/14 07:52:41;;;;;;;5.70;2.30;;;9.40;99.90;;;;;;5000521;28;20275;-79
2023/04/14 07:55:08;;;;;;;6.70;2.60;;;9.60;99.90;;;;;;4998429;28;20235;-80
2023/04/14 07:57:35;;;;;;;7.63;2.33;;;9.80;99.90;;;;;;5000318;28;20767;-79
2023/04/14 08:00:02;;;;;;;6.87;2.27;;;10.00;99.90;;;;;;4998128;28;20213;-78
2023/04/14 08:02:39;;;;;;;6.13;3.43;;;10.30;99.90;;;;;;5001462;28;20227;-80
2023/04/14 08:05:06;;;;;;;6.87;2.60;;;10.50;99.90;;;;;;4999928;28;20269;-79
2023/04/14 08:07:34;;;;;;;6.20;2.27;;;10.90;99.90;;;;;;4998698;28;20256;-78
2023/04/14 08:10:02;;;;;;;5.63;2.23;;;11.10;99.90;;;;;;4999668;28;20230;-80
2023/04/14 08:12:28;;;;;;;4.80;1.80;;;11.40;99.90;;;;;;4999874;28;20790;-81
2023/04/14 08:14:56;;;;;;;6.10;2.00;;;11.70;99.90;;;;;;4998872;28;20694;-79
2023/04/14 08:17:23;;;;;;;4.83;1.97;;;11.90;99.90;;;;;;5002525;28;20232;-78
2023/04/14 08:19:49;;;;;;;6.37;2.37;;;12.10;99.90;;;;;;4999922;28;20236;-78
2023/04/14 08:22:17;;;;;;;6.60;2.00;;;12.30;99.90;;;;;;4998471;28;20213;-79
2023/04/14 08:24:45;;;;;;;6.50;2.00;;;12.50;99.90;;;;;;4995266;28;20233;-79
2023/04/14 08:27:11;;;;;;;5.27;2.33;;;12.70;99.90;;;;;;5000451;28;20243;-79
2023/04/14 08:29:38;;;;;;;30.17;19.63;;;12.80;99.90;;;;;;4995297;28;20629;-79
2023/04/14 08:32:05;;;;;;;11.37;6.43;;;12.90;99.90;;;;;;5000483;28;20227;-78
2023/04/14 08:34:32;;;;;;;7.07;2.43;;;13.00;99.90;;;;;;5003428;28;20908;-79
2023/04/14 08:36:59;;;;;;;7.53;2.90;;;13.00;99.90;;;;;;4999618;28;20246;-79
2023/04/14 08:39:26;;;;;;;7.47;3.40;;;13.00;99.90;;;;;;4998932;28;20260;-80
2023/04/14 08:41:55;;;;;;;5.43;2.03;;;13.00;99.90;;;;;;5002240;28;20270;-79
2023/04/14 08:44:22;;;;;;;6.33;2.63;;;13.00;99.90;;;;;;5006110;28;20222;-80
2023/04/14 08:46:51;;;;;;;3.37;2.10;;;13.10;99.90;;;;;;5004145;28;20593;-79
2023/04/14 08:49:41;;;;;;;4.57;1.97;;;13.10;99.90;;;;;;5000648;28;20248;-79
2023/04/14 08:52:10;;;;;;;4.53;2.10;;;13.20;99.90;;;;;;5003571;28;20226;-79
2023/04/14 08:54:39;;;;;;;4.27;1.87;;;13.30;99.90;;;;;;5007697;28;20264;-78
2023/04/14 08:57:09;;;;;;;4.80;1.93;;;13.40;99.90;;;;;;5001922;28;20232;-78
2023/04/14 08:59:37;;;;;;;4.97;1.90;;;13.40;99.90;;;;;;5007448;28;20287;-78
2023/04/14 09:02:05;;;;;;;8.20;2.17;;;13.40;99.90;;;;;;5000507;28;20230;-78
2023/04/14 09:04:36;;;;;;;4.10;2.00;;;13.40;99.90;;;;;;5000706;28;20229;-78
2023/04/14 09:07:02;;;;;;;5.10;2.33;;;13.30;99.90;;;;;;5004133;28;20226;-79
2023/04/14 09:09:30;;;;;;;5.60;2.17;;;13.30;99.90;;;;;;5000742;28;20237;-78
2023/04/14 09:11:57;;;;;;;4.00;1.90;;;13.30;99.90;;;;;;5005047;28;20232;-79
2023/04/14 09:14:27;;;;;;;3.93;1.97;;;13.30;99.90;;;;;;4997491;28;20253;-78
2023/04/14 09:16:55;;;;;;;5.03;2.00;;;13.40;99.90;;;;;;5002143;28;20591;-79
2023/04/14 09:19:23;;;;;;;5.27;1.93;;;13.40;99.90;;;;;;5007449;28;20218;-78
2023/04/14 09:21:50;;;;;;;3.60;1.77;;;13.40;99.90;;;;;;5005094;28;20259;-78
2023/04/14 09:24:22;;;;;;;5.07;1.73;;;13.40;99.90;;;;;;5002870;28;20226;-78
2023/04/14 09:26:49;;;;;;;4.97;1.97;;;13.40;99.90;;;;;;5004537;28;20233;-78
2023/04/14 09:29:15;;;;;;;4.37;1.70;;;13.50;99.90;;;;;;5006592;28;20227;-78
2023/04/14 09:31:44;;;;;;;3.97;1.80;;;13.60;99.90;;;;;;5006090;28;20291;-80
2023/04/14 09:34:15;;;;;;;4.33;2.00;;;13.60;99.90;;;;;;5021035;28;20298;-78
2023/04/14 09:36:42;;;;;;;3.53;1.60;;;13.70;99.90;;;;;;4992587;28;20238;-78
2023/04/14 09:39:17;;;;;;;5.10;1.50;;;13.80;99.90;;;;;;5004499;28;20232;-79
2023/04/14 09:41:47;;;;;;;4.20;1.80;;;13.90;99.90;;;;;;5003721;28;20240;-78
2023/04/14 09:44:14;;;;;;;5.57;1.80;;;14.00;99.90;;;;;;5004827;28;20216;-78
2023/04/14 09:46:56;;;;;;;3.57;1.50;;;14.10;99.90;;;;;;5006352;28;20231;-78
2023/04/14 09:49:23;;;;;;;2.27;1.40;;;14.10;99.90;;;;;;5005552;28;20780;-79
2023/04/14 09:51:52;;;;;;;4.83;1.87;;;14.20;99.90;;;;;;5002855;28;20231;-80
2023/04/14 09:54:24;;;;;;;3.87;1.77;;;14.20;99.90;;;;;;5003162;28;20219;-78
2023/04/14 09:56:51;;;;;;;3.07;1.60;;;14.30;99.90;;;;;;5006033;28;20242;-78
2023/04/14 09:59:30;;;;;;;4.30;1.73;;;14.30;99.90;;;;;;5002383;28;20592;-78
2023/04/14 10:02:00;;;;;;;3.70;1.33;;;14.40;99.90;;;;;;5005100;28;20234;-78
2023/04/14 10:04:27;;;;;;;3.93;1.40;;;14.50;99.90;;;;;;5004323;28;20223;-78
2023/04/14 10:06:57;;;;;;;2.83;1.70;;;14.60;99.90;;;;;;5003165;28;20262;-78
2023/04/14 10:09:26;;;;;;;4.40;1.90;;;14.70;98.70;;;;;;5005360;28;20235;-80
2023/04/14 10:12:07;;;;;;;2.40;1.40;;;14.70;98.80;;;;;;5005351;28;20737;-78
2023/04/14 10:14:34;;;;;;;4.63;1.53;;;14.70;98.20;;;;;;5002109;28;20231;-79
2023/04/14 10:17:02;;;;;;;5.00;2.00;;;14.70;98.40;;;;;;5001388;28;20331;-78
2023/04/14 10:19:30;;;;;;;3.37;1.80;;;14.60;98.30;;;;;;5005098;28;20230;-78
2023/04/14 10:21:58;;;;;;;5.60;1.67;;;14.60;97.60;;;;;;5003074;28;20250;-79
2023/04/14 10:24:25;;;;;;;3.67;1.47;;;14.50;97.60;;;;;;4997272;28;20238;-80
2023/04/14 10:26:52;;;;;;;6.90;2.07;;;14.40;97.80;;;;;;5004198;28;20231;-78
2023/04/14 10:29:20;;;;;;;5.00;1.50;;;14.30;97.90;;;;;;5000500;28;20223;-79
2023/04/14 10:31:49;;;;;;;4.00;1.60;;;14.30;97.80;;;;;;5000443;28;20238;-79
2023/04/14 10:34:19;;;;;;;4.13;1.77;;;14.20;97.60;;;;;;5001602;28;20231;-78
2023/04/14 10:36:47;;;;;;;6.17;1.93;;;14.10;97.80;;;;;;5003098;28;20635;-80
2023/04/14 10:39:21;;;;;;;6.70;2.10;;;14.00;98.00;;;;;;5003421;28;20231;-78
2023/04/14 10:41:48;;;;;;;5.83;1.97;;;14.00;97.70;;;;;;5016209;28;20242;-80
2023/04/14 10:44:23;;;;;;;4.77;1.40;;;14.00;98.30;;;;;;5003450;28;20314;-79
2023/04/14 10:46:50;;;;;;;3.00;1.60;;;14.10;98.40;;;;;;5002536;28;20225;-79
2023/04/14 10:49:18;;;;;;;5.17;1.70;;;14.20;98.60;;;;;;5001821;28;20224;-78
2023/04/14 10:51:48;;;;;;;3.80;1.70;;;14.40;98.80;;;;;;4996519;28;20228;-80
2023/04/14 10:54:18;;;;;;;3.00;1.90;;;14.50;98.00;;;;;;5003087;28;20287;-79
2023/04/14 10:57:11;;;;;;;3.03;1.50;;;14.70;97.60;;;;;;4999923;28;20244;-79
2023/04/14 10:59:41;;;;;;;3.57;1.70;;;14.80;97.10;;;;;;4995379;28;20256;-78
2023/04/14 11:02:22;;;;;;;4.70;1.80;;;14.90;97.40;;;;;;5001796;28;20332;-78
2023/04/14 11:05:05;;;;;;;4.90;1.63;;;14.80;95.60;;;;;;5001752;28;20230;-78
2023/04/14 11:07:37;;;;;;;3.83;1.73;;;14.80;96.40;;;;;;4999599;28;20914;-78
2023/04/14 11:10:25;;;;;;;3.57;1.70;;;14.80;96.60;;;;;;5000837;28;20223;-78
2023/04/14 11:12:55;;;;;;;3.67;1.70;;;14.70;96.60;;;;;;4995489;28;20238;-79
2023/04/14 11:15:22;;;;;;;4.37;2.10;;;14.70;97.20;;;;;;5000359;28;20228;-79
2023/04/14 11:17:48;;;;;;;5.97;1.77;;;14.70;97.40;;;;;;4997345;28;20227;-78
2023/04/14 11:20:18;;;;;;;3.70;1.80;;;14.70;97.40;;;;;;4996436;28;20312;-79
2023/04/14 11:22:47;;;;;;;3.73;1.80;;;14.80;97.60;;;;;;4997995;28;20321;-79
2023/04/14 11:25:15;;;;;;;2.80;1.77;;;14.80;97.70;;;;;;5001836;28;20228;-78
2023/04/14 11:27:42;;;;;;;2.67;1.80;;;14.90;96.50;;;;;;5001783;28;20235;-79
2023/04/14 11:30:14;;;;;;;3.77;1.77;;;15.00;97.30;;;;;;5000628;28;20258;-78
2023/04/14 11:32:47;;;;;;;5.57;2.20;;;15.00;96.50;;;;;;4999516;28;20290;-80
2023/04/14 11:35:14;;;;;;;3.67;1.87;;;14.90;96.50;;;;;;4999068;28;20301;-82
2023/04/14 11:37:43;;;;;;;4.00;1.77;;;14.90;96.30;;;;;;5001494;28;20701;-80
2023/04/14 11:40:11;;;;;;;3.73;1.43;;;14.80;96.70;;;;;;5000921;28;20302;-82
2023/04/14 11:42:38;;;;;;;4.03;1.90;;;14.80;97.20;;;;;;4996258;28;20285;-79
2023/04/14 11:45:06;;;;;;;6.07;2.10;;;14.80;97.30;;;;;;4998746;28;20615;-81
2023/04/14 11:47:33;;;;;;;3.30;2.13;;;14.80;96.90;;;;;;4999516;28;20232;-81
2023/04/14 11:50:03;;;;;;;3.80;2.00;;;14.80;96.70;;;;;;4998751;28;20224;-80
2023/04/14 11:52:30;;;;;;;4.13;2.00;;;14.80;97.00;;;;;;5000791;28;20223;-79
2023/04/14 11:54:58;;;;;;;5.87;2.17;;;14.80;97.30;;;;;;4998287;28;20234;-81
2023/04/14 11:57:25;;;;;;;4.00;2.30;;;14.90;96.90;;;;;;4999450;28;20228;-80
2023/04/14 11:59:51;;;;;;;3.77;2.10;;;14.90;96.70;;;;;;4999108;28;20224;-81
2023/04/14 12:02:20;;;;;;;4.67;2.83;;;14.90;96.90;;;;;;4997950;28;20224;-80
2023/04/14 12:04:49;;;;;;;3.73;2.40;;;14.90;95.90;;;;;;4999133;28;20275;-83
2023/04/14 12:07:17;;;;;;;3.53;2.20;;;14.90;96.30;;;;;;4998220;28;20294;-81
2023/04/14 12:09:47;;;;;;;3.37;2.00;;;14.90;96.60;;;;;;5002414;28;20236;-81
2023/04/14 12:12:17;;;;;;;3.33;2.10;;;14.90;96.70;;;;;;4997076;28;20291;-80
2023/04/14 12:14:45;;;;;;;3.90;2.00;;;14.90;96.60;;;;;;4991980;28;20285;-81
2023/04/14 12:17:14;;;;;;;4.87;3.40;;;15.00;96.80;;;;;;4999915;28;20230;-81
2023/04/14 12:19:41;;;;;;;4.37;2.40;;;15.10;97.10;;;;;;4998444;28;20309;-80
2023/04/14 12:22:08;;;;;;;3.40;2.50;;;15.30;97.10;;;;;;5002824;28;20250;-81
2023/04/14 12:24:36;;;;;;;4.20;2.07;;;15.40;96.90;;;;;;5004631;28;20310;-81
2023/04/14 12:27:05;;;;;;;4.53;2.20;;;15.60;96.70;;;;;;5000461;28;20234;-81
2023/04/14 12:29:33;;;;;;;4.37;2.13;;;15.70;96.90;;;;;;5007028;28;20227;-81
2023/04/14 12:32:01;;;;;;;3.77;2.00;;;15.90;96.50;;;;;;5002277;28;20221;-81
2023/04/14 12:34:30;;;;;;;4.87;2.13;;;16.00;96.90;;;;;;5021007;28;20237;-82
2023/04/14 12:36:56;;;;;;;3.87;1.93;;;16.10;95.60;;;;;;5005133;28;20829;-81
2023/04/14 12:39:26;;;;;;;4.47;1.77;;;16.20;95.70;;;;;;5006099;28;22596;-80
2023/04/14 12:41:53;;;;;;;3.00;1.90;;;16.20;95.30;;;;;;5007493;28;20226;-84
2023/04/14 12:44:23;;;;;;;4.27;2.00;;;16.20;95.40;;;;;;5005121;28;20223;-81
2023/04/14 12:46:52;;;;;;;3.90;2.00;;;16.10;95.00;;;;;;5002261;28;20238;-82
2023/04/14 12:49:32;;;;;;;3.30;2.13;;;16.00;95.20;;;;;;5003577;28;20222;-81
2023/04/14 12:51:59;;;;;;;5.50;2.50;;;15.80;94.90;;;;;;5002122;28;20936;-82
2023/04/14 12:54:26;;;;;;;5.03;2.20;;;15.70;95.20;;;;;;5000363;28;20231;-80
2023/04/14 12:56:53;;;;;;;4.67;2.43;;;15.60;95.40;;;;;;5006424;28;20766;-82
2023/04/14 12:59:19;;;;;;;2.50;2.00;;;15.50;95.40;;;;;;5003739;28;20218;-81
2023/04/14 13:01:46;;;;;;;4.47;2.00;;;15.40;95.30;;;;;;5005854;28;20249;-80